Time;durP1;ratioP1;P1;durP2;ratioP2;P2;SDS_P1;SDS_P2;PMS_P1;PMS_P2;Temp;Humidity;BMP_temperature;BMP_pressure;BME280_temperature;BME280_humidity;BME280_pressure;Samples;Min_cycle;Max_cycle;Signal;HPM_P1;HPM_P2
2022/11/01 00:00:56;;;;;;;10.15;5.88;;;;;;;13.18;100.00;101534.22;2092357;28;20719;-74
2022/11/01 00:02:19;;;;;;;11.63;6.30;;;;;;;13.17;100.00;101537.75;2095120;28;20041;-74
2022/11/01 00:03:40;;;;;;;9.65;5.85;;;;;;;13.17;100.00;101529.78;2097267;28;20060;-74
2022/11/01 00:05:03;;;;;;;8.73;5.70;;;;;;;13.16;100.00;101531.53;2095025;28;20519;-74
2022/11/01 00:06:25;;;;;;;10.00;5.82;;;;;;;13.19;100.00;101530.72;2095275;28;20068;-74
2022/11/01 00:07:49;;;;;;;9.50;6.93;;;;;;;13.21;100.00;101523.66;2102630;28;20395;-74
2022/11/01 00:09:10;;;;;;;9.32;6.15;;;;;;;13.21;100.00;101523.66;2105675;28;20578;-75
2022/11/01 00:10:33;;;;;;;9.43;6.20;;;;;;;13.22;100.00;101527.22;2094632;28;20085;-74
2022/11/01 00:11:55;;;;;;;8.55;5.72;;;;;;;13.21;100.00;101528.06;2086744;28;20044;-74
2022/11/01 00:13:16;;;;;;;8.70;5.55;;;;;;;13.15;100.00;101529.75;2092262;28;20045;-74
2022/11/01 00:14:39;;;;;;;8.50;5.53;;;;;;;13.12;100.00;101521.78;2105097;28;20040;-74
2022/11/01 00:16:00;;;;;;;9.95;5.90;;;;;;;13.10;100.00;101517.25;2097402;28;20053;-74
2022/11/01 00:17:23;;;;;;;10.40;6.43;;;;;;;13.10;100.00;101518.16;2097543;28;20066;-74
2022/11/01 00:18:44;;;;;;;8.93;5.88;;;;;;;13.07;100.00;101514.53;2094627;28;20048;-74
2022/11/01 00:20:07;;;;;;;8.93;5.60;;;;;;;13.02;100.00;101514.47;2094951;28;20428;-74
2022/11/01 00:21:30;;;;;;;11.32;6.05;;;;;;;13.02;100.00;101516.22;2097438;28;20067;-74
2022/11/01 00:22:54;;;;;;;7.85;5.65;;;;;;;13.00;100.00;101510.88;2103340;28;20109;-74
2022/11/01 00:24:16;;;;;;;8.90;5.65;;;;;;;12.99;100.00;101513.53;2097393;28;20119;-74
2022/11/01 00:25:37;;;;;;;10.23;6.10;;;;;;;13.00;100.00;101512.66;2093512;28;20060;-74
2022/11/01 00:27:00;;;;;;;11.20;5.72;;;;;;;12.98;100.00;101507.34;2100768;28;20471;-74
2022/11/01 00:28:21;;;;;;;10.10;6.05;;;;;;;12.98;100.00;101507.34;2095037;28;20720;-74
2022/11/01 00:29:43;;;;;;;10.57;5.85;;;;;;;12.97;100.00;101515.25;2094792;28;20132;-74
2022/11/01 00:31:05;;;;;;;9.52;5.60;;;;;;;12.96;100.00;101513.47;2102923;28;20060;-74
2022/11/01 00:32:28;;;;;;;11.10;5.88;;;;;;;12.95;100.00;101509.03;2097558;28;20069;-74
2022/11/01 00:33:50;;;;;;;9.30;5.70;;;;;;;12.94;100.00;101507.25;2094539;28;20050;-74
2022/11/01 00:35:11;;;;;;;8.38;5.75;;;;;;;12.94;100.00;101509.88;2103179;28;20469;-73
2022/11/01 00:36:34;;;;;;;12.73;6.57;;;;;;;12.93;100.00;101513.44;2097194;28;20139;-74
2022/11/01 00:37:57;;;;;;;10.43;5.82;;;;;;;12.93;100.00;101513.44;2086441;28;20025;-74
2022/11/01 00:39:20;;;;;;;11.38;6.00;;;;;;;12.91;100.00;101515.16;2086645;28;20049;-73
2022/11/01 00:40:41;;;;;;;10.70;6.45;;;;;;;12.89;100.00;101509.81;2095449;28;20093;-73
2022/11/01 00:42:03;;;;;;;10.38;5.63;;;;;;;12.88;100.00;101510.69;2094704;28;20514;-73
2022/11/01 00:43:25;;;;;;;10.38;5.72;;;;;;;12.88;100.00;101509.78;2102862;28;20549;-73
2022/11/01 00:44:47;;;;;;;11.20;5.78;;;;;;;12.86;100.00;101504.47;2088008;28;20068;-73
2022/11/01 00:46:09;;;;;;;10.55;6.07;;;;;;;12.86;100.00;101507.13;2094943;28;20161;-74
2022/11/01 00:47:32;;;;;;;10.55;6.35;;;;;;;12.85;100.00;101508.00;2086488;28;20451;-73
2022/11/01 00:48:54;;;;;;;9.38;5.70;;;;;;;12.85;100.00;101504.44;2100215;28;20040;-74
2022/11/01 00:50:17;;;;;;;10.68;6.68;;;;;;;12.84;100.00;101505.31;2097049;28;20053;-74
2022/11/01 00:51:39;;;;;;;9.05;5.90;;;;;;;12.85;100.00;101508.00;2103105;28;20052;-73
2022/11/01 00:53:02;;;;;;;8.35;6.00;;;;;;;12.85;100.00;101504.44;2080770;28;20049;-74
2022/11/01 00:54:24;;;;;;;9.43;6.13;;;;;;;12.84;100.00;101508.84;2092249;28;20447;-74
2022/11/01 00:55:45;;;;;;;12.60;6.60;;;;;;;12.83;100.00;101507.06;2089035;28;20770;-74
2022/11/01 00:57:08;;;;;;;9.50;5.93;;;;;;;12.82;100.00;101507.91;2079968;28;20073;-74
2022/11/01 00:58:30;;;;;;;9.98;6.22;;;;;;;12.83;100.00;101503.50;2083950;28;20132;-74
2022/11/01 00:59:52;;;;;;;9.52;5.60;;;;;;;12.81;100.00;101511.44;2082742;28;20102;-74
2022/11/01 01:01:14;;;;;;;11.55;6.47;;;;;;;12.78;100.00;101504.34;2093781;28;20052;-73
2022/11/01 01:02:35;;;;;;;10.30;5.80;;;;;;;12.75;100.00;101506.00;2086197;28;20586;-74
2022/11/01 01:03:58;;;;;;;8.55;5.18;;;;;;;12.70;100.00;101508.59;2091246;28;20060;-73
2022/11/01 01:05:19;;;;;;;9.68;5.55;;;;;;;12.68;100.00;101507.66;2102506;28;20047;-74
2022/11/01 01:06:42;;;;;;;8.35;5.68;;;;;;;12.67;100.00;101510.28;2089156;28;20040;-73
2022/11/01 01:08:06;;;;;;;9.20;5.38;;;;;;;12.67;100.00;101513.81;2086262;28;20481;-73
2022/11/01 01:09:28;;;;;;;10.75;6.40;;;;;;;12.64;100.00;101505.81;2092070;28;20132;-74
2022/11/01 01:10:50;;;;;;;11.85;6.03;;;;;;;12.64;100.00;101500.53;2093946;28;20137;-73
2022/11/01 01:12:12;;;;;;;12.20;5.78;;;;;;;12.64;100.00;101502.28;2094331;28;20045;-74
2022/11/01 01:13:34;;;;;;;8.43;5.93;;;;;;;12.64;100.00;101507.59;2094419;28;20079;-74
2022/11/01 01:14:55;;;;;;;9.23;5.88;;;;;;;12.63;100.00;101503.13;2102656;28;20516;-74
2022/11/01 01:16:18;;;;;;;9.73;5.78;;;;;;;12.63;100.00;101496.09;2096966;28;20049;-73
2022/11/01 01:17:40;;;;;;;10.27;5.85;;;;;;;12.63;100.00;101497.84;2078071;28;20492;-74
2022/11/01 01:19:02;;;;;;;8.52;4.75;;;;;;;12.62;100.00;101501.34;2095021;28;20079;-74
2022/11/01 01:20:23;;;;;;;8.88;4.88;;;;;;;12.62;100.00;101507.53;2097017;28;20052;-74
2022/11/01 01:21:46;;;;;;;8.77;4.97;;;;;;;12.59;100.00;101491.59;2102413;28;20413;-74
2022/11/01 01:23:10;;;;;;;9.90;6.03;;;;;;;12.60;100.00;101495.16;2096834;28;20048;-73
2022/11/01 01:24:32;;;;;;;8.30;5.32;;;;;;;12.60;100.00;101497.81;2086411;28;20072;-74
2022/11/01 01:25:54;;;;;;;9.60;5.78;;;;;;;12.58;100.00;101500.41;2100191;28;20062;-74
2022/11/01 01:27:16;;;;;;;10.95;5.95;;;;;;;12.58;100.00;101494.22;2088234;28;20059;-74
2022/11/01 01:28:39;;;;;;;11.05;5.30;;;;;;;12.58;100.00;101495.13;2083624;28;20056;-73
2022/11/01 01:30:00;;;;;;;8.93;5.22;;;;;;;12.56;100.00;101493.28;2094997;28;20044;-74
2022/11/01 01:31:22;;;;;;;12.32;6.63;;;;;;;12.55;100.00;101500.34;2088745;28;20053;-74
2022/11/01 01:32:44;;;;;;;9.35;5.53;;;;;;;12.54;100.00;101503.84;2091299;28;20036;-74
2022/11/01 01:34:07;;;;;;;10.35;6.03;;;;;;;12.52;100.00;101495.00;2102592;28;20105;-74
2022/11/01 01:35:28;;;;;;;12.43;5.78;;;;;;;12.50;100.00;101491.41;2088837;28;20056;-74
2022/11/01 01:36:50;;;;;;;9.98;6.20;;;;;;;12.49;100.00;101500.22;2099817;28;20510;-74
2022/11/01 01:38:15;;;;;;;12.27;7.80;;;;;;;12.47;100.00;101495.78;2088416;28;20049;-73
2022/11/01 01:39:38;;;;;;;9.70;6.97;;;;;;;12.44;100.00;101495.69;2100222;28;20056;-74
2022/11/01 01:41:54;;;;;;;9.88;6.55;;;;;;;12.44;100.00;101496.59;2096907;28;20036;-74
2022/11/01 01:42:43;;;;;;;11.27;7.38;;;;;;;12.42;100.00;101493.03;2095932;28;20137;-74
2022/11/01 01:44:37;;;;;;;13.40;8.02;;;;;;;12.42;100.00;101487.72;2102480;28;20044;-74
2022/11/01 01:45:59;;;;;;;12.45;7.68;;;;;;;12.39;100.00;101492.97;2096626;28;20033;-74
2022/11/01 01:47:23;;;;;;;14.75;9.05;;;;;;;12.38;100.00;101486.78;2093094;28;20040;-74
2022/11/01 01:48:53;;;;;;;11.45;8.38;;;;;;;12.38;100.00;101492.09;2103027;28;20044;-74
2022/11/01 01:50:19;;;;;;;10.70;6.75;;;;;;;12.38;100.00;101489.44;2090053;28;20432;-75
2022/11/01 01:51:41;;;;;;;12.10;8.10;;;;;;;12.36;100.00;101485.84;2102806;28;20097;-74
2022/11/01 01:53:08;;;;;;;9.10;5.75;;;;;;;12.37;100.00;101490.28;2096484;28;20119;-75
2022/11/01 01:54:31;;;;;;;10.73;6.20;;;;;;;12.37;100.00;101484.09;2103347;28;20052;-74
2022/11/01 01:55:57;;;;;;;9.68;5.60;;;;;;;12.37;100.00;101486.75;2096173;28;20860;-74
2022/11/01 01:57:20;;;;;;;10.73;6.57;;;;;;;12.35;100.00;101496.41;2102628;28;20044;-74
2022/11/01 01:58:46;;;;;;;10.63;6.68;;;;;;;12.35;100.00;101485.81;2088372;28;20459;-74
2022/11/01 02:00:08;;;;;;;8.55;5.65;;;;;;;12.34;100.00;101489.31;2091868;28;20111;-74
2022/11/01 02:01:37;;;;;;;10.27;5.60;;;;;;;12.34;100.00;101487.56;2102967;28;20131;-74
2022/11/01 02:02:59;;;;;;;9.07;5.80;;;;;;;12.34;100.00;101492.84;2104924;28;20151;-74
2022/11/01 02:04:28;;;;;;;11.05;5.95;;;;;;;12.34;100.00;101487.56;2096372;28;20036;-74
2022/11/01 02:05:54;;;;;;;9.57;5.75;;;;;;;12.32;100.00;101483.13;2103311;28;20048;-74
2022/11/01 02:07:17;;;;;;;8.57;5.43;;;;;;;12.30;100.00;101487.47;2096349;28;20045;-74
2022/11/01 02:08:42;;;;;;;10.68;6.40;;;;;;;12.31;100.00;101494.56;2093639;28;20148;-74
2022/11/01 02:10:07;;;;;;;8.95;5.75;;;;;;;12.28;100.00;101491.84;2096767;28;20489;-74
2022/11/01 02:11:29;;;;;;;9.23;6.05;;;;;;;12.26;100.00;101486.53;2094435;28;20041;-73
2022/11/01 02:12:52;;;;;;;9.55;6.10;;;;;;;12.25;100.00;101486.50;2093565;28;20553;-73
2022/11/01 02:14:16;;;;;;;9.70;5.50;;;;;;;12.26;100.00;101490.94;2093458;28;20048;-73
2022/11/01 02:15:46;;;;;;;10.45;5.63;;;;;;;12.23;100.00;101491.75;2080180;28;20114;-73
2022/11/01 02:17:16;;;;;;;8.68;5.82;;;;;;;12.22;100.00;101494.38;2098026;28;20052;-73
2022/11/01 02:18:44;;;;;;;9.25;5.45;;;;;;;12.20;100.00;101498.75;2096511;28;20044;-73
2022/11/01 02:20:38;;;;;;;9.23;4.90;;;;;;;12.19;100.00;101491.69;2096855;28;20139;-73
2022/11/01 02:22:06;;;;;;;7.93;5.35;;;;;;;12.16;100.00;101489.84;2096735;28;20089;-73
2022/11/01 02:24:02;;;;;;;7.45;5.20;;;;;;;12.18;100.00;101497.81;2094789;28;20061;-73
2022/11/01 02:25:54;;;;;;;8.18;5.28;;;;;;;12.16;100.00;101491.59;2096101;28;20092;-74
2022/11/01 02:27:23;;;;;;;8.10;5.50;;;;;;;12.16;100.00;101500.44;2096704;28;20400;-73
2022/11/01 02:29:04;;;;;;;14.00;5.90;;;;;;;12.16;100.00;101496.88;2086294;28;20049;-74
2022/11/01 02:30:35;;;;;;;9.75;5.70;;;;;;;12.16;100.00;101492.50;2096531;28;20140;-74
2022/11/01 02:32:15;;;;;;;8.15;5.05;;;;;;;12.16;100.00;101491.59;2086844;28;20111;-73
2022/11/01 02:33:43;;;;;;;8.82;4.95;;;;;;;12.16;100.00;101496.88;2087845;28;20056;-74
2022/11/01 02:35:13;;;;;;;7.60;4.90;;;;;;;12.13;100.00;101491.56;2088214;28;20052;-74
2022/11/01 02:36:41;;;;;;;8.10;5.50;;;;;;;12.12;100.00;101500.34;2095208;28;20055;-73
2022/11/01 02:38:08;;;;;;;7.35;5.22;;;;;;;12.10;100.00;101497.66;2086376;28;20036;-74
2022/11/01 02:39:34;;;;;;;9.55;5.38;;;;;;;12.11;100.00;101498.56;2092621;28;20123;-74
2022/11/01 02:41:04;;;;;;;12.68;6.40;;;;;;;12.11;100.00;101498.56;2094575;28;20044;-74
2022/11/01 02:42:30;;;;;;;10.50;5.68;;;;;;;12.10;100.00;101505.59;2094542;28;20048;-74
2022/11/01 02:43:55;;;;;;;12.02;5.88;;;;;;;12.10;100.00;101497.66;2093689;28;20137;-74
2022/11/01 02:45:27;;;;;;;9.82;5.72;;;;;;;12.09;100.00;101497.63;2094239;28;20139;-74
2022/11/01 02:47:02;;;;;;;8.25;5.28;;;;;;;12.07;100.00;101507.31;2088415;28;20542;-74
2022/11/01 02:48:26;;;;;;;8.88;5.45;;;;;;;12.04;100.00;101504.56;2094676;28;20567;-74
2022/11/01 02:49:52;;;;;;;9.65;5.90;;;;;;;12.03;100.00;101508.97;2093744;28;20036;-73
2022/11/01 02:51:17;;;;;;;8.80;5.78;;;;;;;12.02;100.00;101507.19;2086351;28;20057;-73
2022/11/01 02:52:40;;;;;;;10.93;6.88;;;;;;;12.02;100.00;101507.19;2088140;28;20117;-74
2022/11/01 02:54:07;;;;;;;8.93;5.82;;;;;;;12.02;100.00;101503.63;2091232;28;20079;-73
2022/11/01 02:55:33;;;;;;;9.48;5.90;;;;;;;12.00;100.00;101500.09;2094580;28;20055;-73
2022/11/01 02:57:05;;;;;;;9.02;5.75;;;;;;;12.02;100.00;101508.94;2096523;28;20048;-73
2022/11/01 02:58:30;;;;;;;9.32;5.82;;;;;;;12.00;100.00;101511.56;2094848;28;20435;-74
2022/11/01 02:59:52;;;;;;;9.02;5.47;;;;;;;11.99;100.00;101509.78;2094282;28;20500;-73
2022/11/01 03:01:21;;;;;;;10.43;5.75;;;;;;;11.99;100.00;101520.38;2082968;28;20049;-73
2022/11/01 03:02:44;;;;;;;11.32;5.75;;;;;;;11.99;100.00;101512.44;2093212;28;20098;-74
2022/11/01 03:04:08;;;;;;;12.27;7.00;;;;;;;12.02;100.00;101514.22;2088222;28;20037;-73
2022/11/01 03:05:38;;;;;;;9.68;5.80;;;;;;;12.03;100.00;101519.56;2076881;28;20437;-73
2022/11/01 03:07:05;;;;;;;9.73;5.95;;;;;;;12.07;100.00;101516.13;2096385;28;20080;-73
2022/11/01 03:08:31;;;;;;;10.45;6.25;;;;;;;12.12;100.00;101518.88;2089028;28;20091;-73
2022/11/01 03:09:53;;;;;;;13.05;6.47;;;;;;;12.14;100.00;101522.47;2085692;28;20489;-73
2022/11/01 03:11:17;;;;;;;8.10;5.70;;;;;;;12.17;100.00;101511.91;2095392;28;20197;-73
2022/11/01 03:12:50;;;;;;;10.15;5.88;;;;;;;12.16;100.00;101521.59;2103800;28;20504;-73
2022/11/01 03:14:18;;;;;;;;;;;;;;;12.10;100.00;101520.59;2098261;28;20043;-73
2022/11/01 03:15:46;;;;;;;9.68;5.80;;;;;;;12.10;100.00;101510.00;2088122;28;19975;-73
2022/11/01 03:17:15;;;;;;;8.55;6.15;;;;;;;12.10;100.00;101523.22;2094051;28;20052;-73
2022/11/01 03:18:44;;;;;;;9.25;5.88;;;;;;;12.10;100.00;101516.19;2104442;28;20077;-73
2022/11/01 03:20:18;;;;;;;9.02;6.40;;;;;;;12.10;100.00;101521.47;2089570;28;20264;-73
2022/11/01 03:21:45;;;;;;;10.18;6.28;;;;;;;12.10;100.00;101528.53;2104208;28;20100;-74
2022/11/01 03:23:09;;;;;;;13.15;7.43;;;;;;;12.11;100.00;101517.97;2074020;28;20144;-74
2022/11/01 03:24:37;;;;;;;12.32;7.50;;;;;;;12.13;100.00;101523.31;2082387;28;20045;-73
2022/11/01 03:26:02;;;;;;;12.50;8.25;;;;;;;12.15;100.00;101522.47;2094153;28;20176;-74
2022/11/01 03:27:31;;;;;;;12.32;7.00;;;;;;;12.17;100.00;101522.50;2095435;28;20041;-74
2022/11/01 03:28:58;;;;;;;13.93;8.63;;;;;;;12.18;100.00;101525.19;2104176;28;20051;-74
2022/11/01 03:30:19;;;;;;;11.00;7.40;;;;;;;12.20;100.00;101519.94;2098177;28;20078;-73
2022/11/01 03:31:43;;;;;;;11.93;6.10;;;;;;;12.19;100.00;101523.44;2094836;28;20047;-75
2022/11/01 03:33:05;;;;;;;8.52;6.20;;;;;;;12.17;100.00;101520.75;2095675;28;20102;-73
2022/11/01 03:34:27;;;;;;;10.23;6.20;;;;;;;12.17;100.00;101519.84;2098004;28;20052;-74
2022/11/01 03:35:54;;;;;;;9.90;6.10;;;;;;;12.14;100.00;101518.03;2095265;28;20135;-74
2022/11/01 03:37:17;;;;;;;10.18;6.43;;;;;;;12.13;100.00;101513.63;2087409;28;20471;-74
2022/11/01 03:38:45;;;;;;;10.35;6.68;;;;;;;12.16;100.00;101526.00;2094804;28;20037;-73
2022/11/01 03:40:10;;;;;;;7.68;5.35;;;;;;;12.19;100.00;101532.28;2095897;28;20056;-74
2022/11/01 03:41:35;;;;;;;8.65;5.45;;;;;;;12.21;100.00;101529.63;2089847;28;20041;-74
2022/11/01 03:43:02;;;;;;;13.15;6.35;;;;;;;12.24;100.00;101530.63;2098507;28;20078;-73
2022/11/01 03:44:27;;;;;;;9.93;6.25;;;;;;;12.25;100.00;101535.06;2089425;28;20496;-74
2022/11/01 03:45:48;;;;;;;11.85;6.95;;;;;;;12.27;100.00;101532.44;2092865;28;20131;-73
2022/11/01 03:47:12;;;;;;;10.23;6.32;;;;;;;12.29;100.00;101542.19;2086670;28;20068;-74
2022/11/01 03:48:37;;;;;;;9.32;5.82;;;;;;;12.32;100.00;101536.06;2092933;28;20521;-74
2022/11/01 03:50:16;;;;;;;9.63;6.13;;;;;;;12.35;100.00;101536.13;2095494;28;20044;-74
2022/11/01 03:51:39;;;;;;;8.40;5.57;;;;;;;12.37;100.00;101539.69;2081573;28;20065;-74
2022/11/01 03:53:01;;;;;;;10.63;6.90;;;;;;;12.38;100.00;101544.13;2091061;28;20496;-73
2022/11/01 03:54:26;;;;;;;9.50;6.40;;;;;;;12.36;100.00;101545.84;2091251;28;20139;-74
2022/11/01 03:55:48;;;;;;;10.45;6.18;;;;;;;12.35;100.00;101546.72;2087103;28;20052;-75
2022/11/01 03:57:11;;;;;;;10.75;6.63;;;;;;;12.35;100.00;101542.31;2092950;28;20064;-72
2022/11/01 03:58:40;;;;;;;12.90;8.13;;;;;;;12.37;100.00;101550.28;2102622;28;20040;-73
2022/11/01 04:00:03;;;;;;;12.57;7.40;;;;;;;12.38;100.00;101544.13;2097628;28;20051;-73
2022/11/01 04:01:34;;;;;;;11.43;7.63;;;;;;;12.39;100.00;101548.59;2104764;28;20064;-74
2022/11/01 04:02:58;;;;;;;11.70;6.97;;;;;;;12.40;100.00;101553.03;2097554;28;20107;-74
2022/11/01 04:04:21;;;;;;;11.25;8.02;;;;;;;12.38;100.00;101544.13;2097809;28;20081;-74
2022/11/01 04:05:43;;;;;;;10.07;7.10;;;;;;;12.36;100.00;101546.75;2094770;28;20052;-74
2022/11/01 04:07:06;;;;;;;12.00;7.80;;;;;;;12.37;100.00;101548.53;2086219;28;20049;-74
2022/11/01 04:08:29;;;;;;;14.18;8.27;;;;;;;12.37;100.00;101545.00;2088804;28;20040;-74
2022/11/01 04:09:50;;;;;;;13.38;8.82;;;;;;;12.36;100.00;101536.16;2086626;28;20049;-74
2022/11/01 04:11:12;;;;;;;11.75;7.40;;;;;;;12.36;100.00;101546.75;2092234;28;20049;-74
2022/11/01 04:12:33;;;;;;;11.30;7.80;;;;;;;12.35;100.00;101554.66;2094668;28;20037;-74
2022/11/01 04:20:31;;;;;;;13.02;7.10;;;;;;;12.30;100.00;101546.63;2085633;28;20079;-75
2022/11/01 04:20:50;;;;;;;14.60;7.95;;;;;;;12.27;100.00;101550.97;2096981;28;20059;-74
2022/11/01 04:22:13;;;;;;;13.52;8.10;;;;;;;12.29;100.00;101546.59;2097454;28;20496;-74
2022/11/01 04:23:36;;;;;;;17.20;6.78;;;;;;;12.28;100.00;101550.09;2095020;28;20044;-73
2022/11/01 04:24:57;;;;;;;10.85;7.38;;;;;;;12.26;100.00;101550.06;2086660;28;20053;-74
2022/11/01 04:26:22;;;;;;;11.40;7.35;;;;;;;12.26;100.00;101549.19;2088954;28;20770;-74
2022/11/01 04:27:43;;;;;;;12.23;7.60;;;;;;;12.25;100.00;101544.75;2089112;28;20049;-74
2022/11/01 04:29:06;;;;;;;11.30;7.15;;;;;;;12.25;100.00;101548.28;2093841;28;20512;-74
2022/11/01 04:30:29;;;;;;;10.95;6.75;;;;;;;12.23;100.00;101550.00;2094214;28;20073;-74
2022/11/01 04:31:51;;;;;;;10.27;7.10;;;;;;;12.20;100.00;101549.94;2086463;28;20135;-75
2022/11/01 04:33:12;;;;;;;12.50;6.90;;;;;;;12.21;100.00;101542.88;2086780;28;20098;-74
2022/11/01 04:34:43;;;;;;;10.90;7.03;;;;;;;12.22;100.00;101555.25;2099971;28;20054;-74
2022/11/01 04:36:06;;;;;;;13.05;7.05;;;;;;;12.21;100.00;101548.16;2097530;28;20083;-74
2022/11/01 04:37:30;;;;;;;13.13;7.50;;;;;;;12.22;100.00;101550.84;2095022;28;20059;-75
2022/11/01 04:38:55;;;;;;;13.90;7.97;;;;;;;12.22;100.00;101557.91;2094692;28;20259;-74
2022/11/01 04:40:16;;;;;;;10.38;6.78;;;;;;;12.22;100.00;101555.25;2086784;28;20465;-74
2022/11/01 04:41:39;;;;;;;10.88;7.10;;;;;;;12.22;100.00;101563.19;2100180;28;20534;-74
2022/11/01 04:43:00;;;;;;;12.57;7.25;;;;;;;12.23;100.00;101557.94;2098195;28;20096;-73
2022/11/01 04:44:22;;;;;;;11.38;7.18;;;;;;;12.24;100.00;101564.13;2102658;28;20515;-74
2022/11/01 04:45:44;;;;;;;13.07;7.03;;;;;;;12.24;100.00;101556.19;2097552;28;20512;-74
2022/11/01 04:47:06;;;;;;;13.00;7.15;;;;;;;12.24;100.00;101569.41;2094623;28;20118;-74
2022/11/01 04:48:28;;;;;;;21.20;7.35;;;;;;;12.23;100.00;101568.53;2102841;28;20587;-73
2022/11/01 04:49:49;;;;;;;14.10;6.90;;;;;;;12.22;100.00;101565.84;2089282;28;20173;-73
2022/11/01 04:51:12;;;;;;;11.55;7.45;;;;;;;12.24;100.00;101566.78;2075265;28;20146;-72
2022/11/01 04:52:36;;;;;;;12.10;7.47;;;;;;;12.25;100.00;101568.56;2092314;28;20171;-72
2022/11/01 04:53:57;;;;;;;12.68;6.78;;;;;;;12.25;100.00;101572.13;2096773;28;20119;-73
2022/11/01 04:55:20;;;;;;;12.30;6.97;;;;;;;12.24;100.00;101569.41;2083313;28;20043;-72
2022/11/01 04:56:41;;;;;;;12.45;7.43;;;;;;;12.26;100.00;101567.72;2094387;28;20056;-73
2022/11/01 04:58:05;;;;;;;11.48;7.50;;;;;;;12.26;100.00;101570.38;2080507;28;20053;-72
2022/11/01 04:59:26;;;;;;;11.38;7.55;;;;;;;12.28;100.00;101580.09;2092206;28;20044;-74
2022/11/01 05:00:49;;;;;;;13.18;7.85;;;;;;;12.31;100.00;101568.69;2082624;28;20042;-74
2022/11/01 05:02:10;;;;;;;11.43;7.40;;;;;;;12.34;100.00;101568.75;2081748;28;20060;-74
2022/11/01 05:03:33;;;;;;;11.93;6.93;;;;;;;12.35;100.00;101575.84;2091724;28;20471;-74
2022/11/01 05:04:54;;;;;;;11.50;7.07;;;;;;;12.35;100.00;101578.47;2086517;28;20060;-74
2022/11/01 05:06:17;;;;;;;12.55;6.90;;;;;;;12.38;100.00;101581.22;2082977;28;20448;-74
2022/11/01 05:07:40;;;;;;;13.48;7.57;;;;;;;12.41;100.00;101581.25;2099979;28;20051;-74
2022/11/01 05:09:02;;;;;;;12.77;7.10;;;;;;;12.43;100.00;101586.59;2093383;28;20382;-74
2022/11/01 05:10:23;;;;;;;13.00;7.55;;;;;;;12.44;100.00;101585.75;2097513;28;20036;-74
2022/11/01 05:11:46;;;;;;;12.02;6.90;;;;;;;12.46;100.00;101587.56;2083552;28;20069;-73
2022/11/01 05:13:09;;;;;;;13.82;6.75;;;;;;;12.49;100.00;101590.25;2094114;28;20056;-74
2022/11/01 05:14:31;;;;;;;12.20;7.07;;;;;;;12.51;100.00;101588.56;2099355;28;20044;-73
2022/11/01 05:15:54;;;;;;;11.00;6.53;;;;;;;12.55;100.00;101592.16;2095020;28;20511;-74
2022/11/01 05:17:15;;;;;;;13.55;7.70;;;;;;;12.57;100.00;101586.03;2102862;28;20044;-74
2022/11/01 05:18:39;;;;;;;15.10;8.15;;;;;;;12.62;100.00;101594.06;2094027;28;20515;-74
2022/11/01 05:20:01;;;;;;;13.68;6.93;;;;;;;12.64;100.00;101592.34;2095553;28;20048;-74
2022/11/01 05:21:24;;;;;;;16.75;8.75;;;;;;;12.69;100.00;101596.88;2102861;28;20052;-73
2022/11/01 05:22:47;;;;;;;15.02;9.48;;;;;;;12.82;100.00;101595.34;2105268;28;20478;-74
2022/11/01 05:24:10;;;;;;;14.32;8.23;;;;;;;12.95;100.00;101597.38;2105097;28;20052;-73
2022/11/01 05:25:33;;;;;;;11.38;7.03;;;;;;;13.12;100.00;101609.25;2097019;28;20528;-73
2022/11/01 05:26:54;;;;;;;11.13;6.63;;;;;;;13.26;100.00;101606.81;2102149;28;20066;-74
2022/11/01 05:28:17;;;;;;;10.32;6.15;;;;;;;13.36;100.00;101606.16;2088680;28;20045;-74
2022/11/01 05:29:39;;;;;;;10.20;6.10;;;;;;;13.50;100.00;101620.53;2092040;28;20060;-74
2022/11/01 05:31:02;;;;;;;13.85;5.97;;;;;;;13.63;100.00;101620.75;2081427;28;20448;-74
2022/11/01 05:32:24;;;;;;;10.48;6.28;;;;;;;13.75;100.00;101618.28;2093888;28;20044;-74
2022/11/01 05:33:45;;;;;;;9.55;5.25;;;;;;;13.91;100.00;101628.31;2098161;28;20082;-74
2022/11/01 05:35:08;;;;;;;11.80;5.38;;;;;;;14.06;100.00;101617.91;2080422;28;20406;-74
2022/11/01 05:36:31;;;;;;;11.27;5.15;;;;;;;14.22;100.00;101622.59;2092396;28;20522;-74
2022/11/01 05:37:55;;;;;;;10.02;5.35;;;;;;;14.38;100.00;101622.81;2096330;28;20127;-74
2022/11/01 05:39:18;;;;;;;8.80;5.80;;;;;;;14.52;100.00;101632.75;2084706;28;20136;-74
2022/11/01 05:40:40;;;;;;;10.60;5.78;;;;;;;14.67;100.00;101626.75;2084798;28;20040;-75
2022/11/01 05:42:01;;;;;;;8.18;5.45;;;;;;;14.82;100.00;101626.06;2099722;28;20066;-75
2022/11/01 05:43:24;;;;;;;8.70;4.93;;;;;;;14.95;100.00;101633.31;2105057;28;20082;-75
2022/11/01 05:44:45;;;;;;;11.25;4.65;;;;;;;15.08;100.00;101636.13;2093161;28;20041;-74
2022/11/01 05:46:08;;;;;;;8.98;4.53;;;;;;;15.18;100.00;101631.78;2087853;28;20111;-74
2022/11/01 05:47:32;;;;;;;12.60;4.63;;;;;;;15.30;100.00;101633.69;2100447;28;20089;-75
2022/11/01 05:48:55;;;;;;;8.45;4.40;;;;;;;15.37;100.00;101623.13;2089352;28;20051;-75
2022/11/01 05:50:17;;;;;;;10.40;5.43;;;;;;;15.48;100.00;101629.47;2093821;28;20048;-75
2022/11/01 05:51:40;;;;;;;8.93;4.60;;;;;;;15.58;100.00;101625.13;2091137;28;20057;-74
2022/11/01 05:53:07;;;;;;;12.70;5.15;;;;;;;15.72;100.00;101626.16;2099559;28;20097;-74
2022/11/01 05:54:30;;;;;;;8.70;5.07;;;;;;;15.84;100.00;101628.00;2092155;28;20048;-74
2022/11/01 05:55:55;;;;;;;11.68;4.55;;;;;;;15.97;100.00;101626.34;2094408;28;20056;-74
2022/11/01 05:57:18;;;;;;;12.95;4.60;;;;;;;16.13;100.00;101628.25;2096998;28;20396;-74
2022/11/01 05:58:39;;;;;;;9.25;4.68;;;;;;;16.27;100.00;101629.22;2089842;28;20044;-74
2022/11/01 06:00:02;;;;;;;10.75;4.32;;;;;;;16.39;100.00;101628.41;2093946;28;20048;-74
2022/11/01 06:01:34;;;;;;;9.70;4.57;;;;;;;16.48;100.00;101629.31;2096935;28;20135;-75
2022/11/01 06:02:58;;;;;;;12.20;5.07;;;;;;;16.54;100.00;101626.69;2093345;28;20057;-75
2022/11/01 06:04:22;;;;;;;11.23;5.43;;;;;;;16.66;100.00;101629.47;2088570;28;20053;-76
2022/11/01 06:05:44;;;;;;;10.43;5.15;;;;;;;16.80;100.00;101631.31;2094350;28;20040;-75
2022/11/01 06:07:06;;;;;;;11.18;5.35;;;;;;;16.95;100.00;101634.00;2080273;28;20081;-75
2022/11/01 06:08:30;;;;;;;8.20;4.60;;;;;;;17.10;100.00;101637.63;2083375;28;20113;-75
2022/11/01 06:09:53;;;;;;;13.85;5.38;;;;;;;17.25;100.00;101642.13;2086807;28;20094;-75
2022/11/01 06:11:15;;;;;;;10.85;4.80;;;;;;;17.41;100.00;101637.69;2088330;28;20259;-75
2022/11/01 06:12:36;;;;;;;9.50;5.07;;;;;;;17.54;100.00;101644.81;2098933;28;20547;-75
2022/11/01 06:13:59;;;;;;;10.88;4.65;;;;;;;17.68;100.00;101644.88;2088564;28;20092;-75
2022/11/01 06:15:22;;;;;;;16.52;5.43;;;;;;;17.81;100.00;101647.56;2085768;28;20512;-75
2022/11/01 06:16:43;;;;;;;10.85;5.10;;;;;;;17.94;100.00;101645.78;2093618;28;20504;-75
2022/11/01 06:18:06;;;;;;;12.30;5.20;;;;;;;18.10;100.00;101644.88;2092964;28;20041;-75
2022/11/01 06:19:28;;;;;;;11.73;6.68;;;;;;;18.26;100.00;101648.41;2093953;28;20110;-75
2022/11/01 06:20:51;;;;;;;14.13;8.57;;;;;;;18.46;100.00;101646.59;2099258;28;20128;-76
2022/11/01 06:22:14;;;;;;;16.48;6.43;;;;;;;18.66;100.00;101643.88;2088536;28;20049;-75
2022/11/01 06:23:38;;;;;;;25.55;6.97;;;;;;;18.84;100.00;101633.09;2084964;28;20041;-74
2022/11/01 06:25:00;;;;;;;20.02;5.43;;;;;;;18.95;100.00;101642.00;2085717;28;20068;-75
2022/11/01 06:26:22;;;;;;;20.75;5.88;;;;;;;19.05;100.00;101640.16;2092578;28;20059;-75
2022/11/01 06:27:43;;;;;;;13.75;6.22;;;;;;;19.18;100.00;101647.22;2096932;28;20041;-75
2022/11/01 06:29:06;;;;;;;46.28;11.05;;;;;;;19.31;100.00;101648.03;2088744;28;20040;-75
2022/11/01 06:30:28;;;;;;;39.55;11.45;;;;;;;19.43;100.00;101650.63;2093576;28;20036;-75